Time;durP1;ratioP1;P1;durP2;ratioP2;P2;SDS_P1;SDS_P2;PMS_P1;PMS_P2;Temp;Humidity;BMP_temperature;BMP_pressure;BME280_temperature;BME280_humidity;BME280_pressure;Samples;Min_cycle;Max_cycle;Signal;HPM_P1;HPM_P2
2022/10/01 00:00:50;;;;;;;7.30;6.55;;;11.70;99.90;;;;;;5055574;28;20090;-77
2022/10/01 00:03:17;;;;;;;7.32;6.70;;;11.70;99.90;;;;;;5052757;28;20090;-79
2022/10/01 00:05:43;;;;;;;9.98;6.53;;;11.70;99.90;;;;;;5050643;28;20131;-78
2022/10/01 00:08:09;;;;;;;8.10;7.00;;;11.60;99.90;;;;;;5052980;28;20106;-79
2022/10/01 00:10:39;;;;;;;8.40;7.43;;;11.60;99.90;;;;;;5054789;28;20047;-79
2022/10/01 00:13:05;;;;;;;8.95;8.02;;;11.60;99.90;;;;;;5053975;28;21016;-77
2022/10/01 00:15:31;;;;;;;10.88;7.50;;;11.50;99.90;;;;;;5058016;28;20127;-80
2022/10/01 00:17:57;;;;;;;10.00;7.60;;;11.50;99.90;;;;;;5052240;28;20118;-79
2022/10/01 00:20:23;;;;;;;9.63;7.05;;;11.50;99.90;;;;;;5055401;28;20091;-78
2022/10/01 00:22:48;;;;;;;10.65;8.07;;;11.50;99.90;;;;;;5055702;28;20078;-77
2022/10/01 00:25:14;;;;;;;13.63;8.45;;;11.40;99.90;;;;;;5058170;28;20044;-78
2022/10/01 00:27:45;;;;;;;9.65;7.90;;;11.50;99.90;;;;;;5054610;28;20513;-79
2022/10/01 00:30:11;;;;;;;10.07;7.68;;;11.40;99.90;;;;;;5054698;28;20502;-79
2022/10/01 00:32:39;;;;;;;9.43;7.57;;;11.40;99.90;;;;;;5053359;28;20814;-78
2022/10/01 00:35:08;;;;;;;8.95;8.05;;;11.40;99.90;;;;;;5059032;28;20048;-78
2022/10/01 00:37:36;;;;;;;9.23;8.13;;;11.30;99.90;;;;;;5057189;28;20040;-78
2022/10/01 00:40:04;;;;;;;9.93;8.80;;;11.30;99.90;;;;;;5058590;28;20117;-79
2022/10/01 00:42:30;;;;;;;9.30;8.07;;;11.30;99.90;;;;;;5056982;28;20056;-80
2022/10/01 00:44:57;;;;;;;10.95;9.85;;;11.30;99.90;;;;;;5055908;28;20052;-80
2022/10/01 00:47:35;;;;;;;9.10;8.25;;;11.30;99.90;;;;;;5057843;28;20067;-80
2022/10/01 00:50:27;;;;;;;15.20;8.77;;;11.30;99.90;;;;;;5055849;28;20048;-79
2022/10/01 00:53:06;;;;;;;12.93;8.73;;;11.30;99.90;;;;;;5053586;28;20823;-79
2022/10/01 00:55:35;;;;;;;9.65;8.75;;;11.30;99.90;;;;;;5054509;28;20044;-78
2022/10/01 00:58:06;;;;;;;10.95;9.07;;;11.30;99.90;;;;;;5057722;28;20055;-79
2022/10/01 01:00:33;;;;;;;10.13;9.00;;;11.20;99.90;;;;;;5055817;28;20077;-79
2022/10/01 01:02:59;;;;;;;14.30;9.27;;;11.20;99.90;;;;;;5052225;28;20415;-78
2022/10/01 01:05:24;;;;;;;12.10;8.80;;;11.20;99.90;;;;;;5055186;28;20583;-78
2022/10/01 01:07:52;;;;;;;11.48;8.57;;;11.30;99.90;;;;;;5054401;28;20075;-77
2022/10/01 01:10:33;;;;;;;12.00;8.77;;;11.20;99.90;;;;;;5055298;28;20048;-79
2022/10/01 01:13:34;;;;;;;11.63;7.70;;;11.30;99.90;;;;;;5056832;28;20044;-78
2022/10/01 01:16:20;;;;;;;10.77;8.07;;;11.20;99.90;;;;;;5053624;28;20056;-78
2022/10/01 01:19:09;;;;;;;8.73;7.82;;;11.20;99.90;;;;;;5052750;28;20056;-77
2022/10/01 01:21:43;;;;;;;12.25;8.75;;;11.20;99.90;;;;;;5051063;28;20565;-78
2022/10/01 01:24:27;;;;;;;11.32;9.43;;;11.20;99.90;;;;;;5053943;28;20098;-76
2022/10/01 01:27:17;;;;;;;11.50;8.15;;;11.20;99.90;;;;;;5056096;28;20074;-78
2022/10/01 01:29:49;;;;;;;10.55;8.15;;;11.20;99.90;;;;;;5089964;27;20825;-79
2022/10/01 01:32:20;;;;;;;13.65;8.88;;;11.20;99.90;;;;;;5055563;28;20839;-76
2022/10/01 01:34:50;;;;;;;12.15;8.82;;;11.20;99.90;;;;;;5054733;28;20046;-78
2022/10/01 01:37:19;;;;;;;10.02;7.75;;;11.20;99.90;;;;;;5054858;28;20052;-78
2022/10/01 01:39:50;;;;;;;9.57;8.45;;;11.20;99.90;;;;;;5052501;28;20389;-77
2022/10/01 01:42:31;;;;;;;9.85;8.85;;;11.20;99.90;;;;;;5056317;28;20195;-80
2022/10/01 01:45:00;;;;;;;8.43;7.53;;;11.20;99.90;;;;;;5045030;28;20107;-77
2022/10/01 01:47:29;;;;;;;8.50;7.60;;;11.20;99.90;;;;;;5042500;28;20056;-79
2022/10/01 01:49:56;;;;;;;11.25;9.43;;;11.10;99.90;;;;;;5054271;28;20527;-75
2022/10/01 01:52:22;;;;;;;9.95;7.22;;;11.10;99.90;;;;;;5053191;28;20061;-74
2022/10/01 01:54:49;;;;;;;11.93;7.78;;;11.10;99.90;;;;;;5053034;28;20402;-77
2022/10/01 01:57:17;;;;;;;11.85;8.20;;;11.20;99.90;;;;;;5052678;28;20158;-76
2022/10/01 01:59:43;;;;;;;11.07;8.48;;;11.10;99.90;;;;;;5050614;28;20413;-75
2022/10/01 02:02:24;;;;;;;9.05;7.78;;;11.10;99.90;;;;;;5046054;28;20061;-74
2022/10/01 02:04:56;;;;;;;9.35;8.45;;;11.10;99.90;;;;;;5046859;28;20121;-76
2022/10/01 02:07:31;;;;;;;12.27;7.93;;;11.10;99.90;;;;;;5042075;28;20123;-74
2022/10/01 02:10:22;;;;;;;10.05;7.97;;;11.10;99.90;;;;;;5047456;28;20052;-75
2022/10/01 02:12:48;;;;;;;14.75;7.63;;;11.10;99.90;;;;;;5055556;28;20152;-74
2022/10/01 02:15:26;;;;;;;11.02;8.20;;;11.10;99.90;;;;;;5056359;28;20464;-76
2022/10/01 02:18:12;;;;;;;11.93;8.48;;;11.10;99.90;;;;;;5051232;28;20053;-74
2022/10/01 02:20:44;;;;;;;9.75;7.53;;;11.10;99.90;;;;;;5058647;28;20048;-75
2022/10/01 02:23:18;;;;;;;10.30;7.13;;;11.10;99.90;;;;;;5046745;28;20044;-75
2022/10/01 02:25:49;;;;;;;8.20;7.00;;;11.10;99.90;;;;;;5050345;28;20048;-74
2022/10/01 02:28:20;;;;;;;9.52;6.47;;;11.10;99.90;;;;;;5045504;28;20052;-75
2022/10/01 02:30:46;;;;;;;9.05;6.65;;;11.10;99.90;;;;;;5057805;28;20045;-74
2022/10/01 02:33:15;;;;;;;9.07;6.95;;;11.10;99.90;;;;;;5052156;28;20044;-75
2022/10/01 02:35:44;;;;;;;9.20;6.70;;;11.10;99.90;;;;;;5053371;28;20402;-74
2022/10/01 02:38:12;;;;;;;9.85;6.57;;;11.10;99.90;;;;;;5046940;28;20119;-75
2022/10/01 02:40:41;;;;;;;9.25;6.72;;;11.10;99.90;;;;;;5057135;28;20036;-75
2022/10/01 02:43:20;;;;;;;8.25;6.55;;;11.10;99.90;;;;;;5053814;28;20052;-75
2022/10/01 02:45:51;;;;;;;7.53;6.60;;;11.10;99.90;;;;;;5052477;28;20040;-76
2022/10/01 02:48:17;;;;;;;11.32;7.43;;;11.10;99.90;;;;;;5059756;28;20052;-77
2022/10/01 02:50:51;;;;;;;7.57;6.20;;;11.10;99.90;;;;;;5042342;28;20059;-75
2022/10/01 02:53:26;;;;;;;7.30;6.30;;;11.10;99.90;;;;;;5058506;28;20051;-76
2022/10/01 02:55:53;;;;;;;6.22;5.50;;;11.10;99.90;;;;;;5043319;28;20037;-76
2022/10/01 02:58:19;;;;;;;7.43;5.82;;;11.10;99.90;;;;;;5048767;28;20090;-76
2022/10/01 03:00:45;;;;;;;7.47;6.28;;;11.10;99.90;;;;;;5044038;28;20057;-76
2022/10/01 03:03:11;;;;;;;8.45;5.70;;;11.20;99.90;;;;;;5049294;28;20044;-77
2022/10/01 03:05:36;;;;;;;6.07;5.55;;;11.20;99.90;;;;;;5046036;28;20040;-76
2022/10/01 03:08:02;;;;;;;7.30;5.70;;;11.20;99.90;;;;;;5048717;28;20893;-79
2022/10/01 03:10:28;;;;;;;11.35;6.65;;;11.20;99.90;;;;;;5051566;28;20155;-77
2022/10/01 03:12:54;;;;;;;6.65;5.32;;;11.20;99.90;;;;;;5055983;28;20454;-77
2022/10/01 03:15:20;;;;;;;6.07;5.55;;;11.20;99.90;;;;;;5058445;28;20050;-77
2022/10/01 03:17:50;;;;;;;6.78;6.07;;;11.20;99.90;;;;;;5053587;28;20049;-77
2022/10/01 03:20:16;;;;;;;5.78;5.18;;;11.30;99.90;;;;;;5050842;28;20048;-77
2022/10/01 03:22:44;;;;;;;5.03;4.63;;;11.20;99.90;;;;;;5055100;28;20580;-77
2022/10/01 03:25:10;;;;;;;6.85;4.95;;;11.30;99.90;;;;;;5048490;28;20082;-77
2022/10/01 03:27:36;;;;;;;5.10;4.57;;;11.30;99.90;;;;;;5046128;28;20053;-77
2022/10/01 03:30:02;;;;;;;5.70;4.55;;;11.30;99.90;;;;;;5055638;28;20055;-78
2022/10/01 03:32:27;;;;;;;4.88;4.38;;;11.30;99.90;;;;;;5055510;28;20044;-77
2022/10/01 03:34:53;;;;;;;5.18;4.28;;;11.30;99.90;;;;;;5083832;28;20053;-78
2022/10/01 03:37:19;;;;;;;4.95;4.55;;;11.30;99.90;;;;;;5048863;28;20083;-77
2022/10/01 03:39:44;;;;;;;5.13;4.18;;;11.30;99.90;;;;;;5044494;28;20156;-78
2022/10/01 03:42:10;;;;;;;6.32;4.38;;;11.30;99.90;;;;;;5046713;28;20041;-78
2022/10/01 03:44:36;;;;;;;5.32;4.28;;;11.40;99.90;;;;;;5046985;28;20057;-77
2022/10/01 03:47:02;;;;;;;5.63;3.78;;;11.40;99.90;;;;;;5058347;28;20059;-78
2022/10/01 03:49:28;;;;;;;3.80;3.28;;;11.30;99.90;;;;;;5070922;28;20044;-77
2022/10/01 03:51:53;;;;;;;3.60;3.30;;;11.30;99.90;;;;;;5055612;28;20141;-77
2022/10/01 03:54:19;;;;;;;4.60;3.50;;;11.40;99.90;;;;;;5060890;28;20094;-77
2022/10/01 03:56:45;;;;;;;3.65;2.95;;;11.40;99.90;;;;;;5061303;28;20044;-77
2022/10/01 03:59:11;;;;;;;3.65;2.97;;;11.30;99.90;;;;;;5088287;28;20072;-78
2022/10/01 04:01:37;;;;;;;3.95;3.17;;;11.30;99.90;;;;;;5051737;28;20044;-77
2022/10/01 04:04:04;;;;;;;3.28;2.85;;;11.40;99.90;;;;;;5046674;28;20045;-78
2022/10/01 04:06:30;;;;;;;2.42;2.20;;;11.40;99.90;;;;;;5044887;28;20111;-78
2022/10/01 04:08:56;;;;;;;3.67;2.53;;;11.40;99.90;;;;;;5049496;28;20169;-79
2022/10/01 04:11:23;;;;;;;3.05;2.28;;;11.40;99.90;;;;;;5056498;28;20775;-79
2022/10/01 04:13:49;;;;;;;3.60;2.20;;;11.40;99.90;;;;;;5043763;28;20078;-78
2022/10/01 04:16:15;;;;;;;2.47;2.05;;;11.40;99.90;;;;;;5057959;28;20059;-78
2022/10/01 04:18:41;;;;;;;2.00;1.90;;;11.40;99.90;;;;;;5060820;28;20055;-78
2022/10/01 04:21:07;;;;;;;2.50;1.80;;;11.40;99.90;;;;;;5056988;28;20567;-77
2022/10/01 04:23:33;;;;;;;2.15;1.77;;;11.40;99.90;;;;;;5057376;28;20051;-78
2022/10/01 04:26:01;;;;;;;2.58;1.90;;;11.40;99.90;;;;;;5056815;28;20137;-77
2022/10/01 04:28:27;;;;;;;1.85;1.75;;;11.40;99.90;;;;;;5056516;28;20151;-76
2022/10/01 04:31:23;;;;;;;2.95;2.40;;;11.50;99.90;;;;;;5054810;28;20434;-76
2022/10/01 04:33:39;;;;;;;2.60;2.13;;;11.40;99.90;;;;;;5089242;27;20856;-76
2022/10/01 04:36:04;;;;;;;3.00;2.33;;;11.50;99.90;;;;;;5057505;28;20037;-77
2022/10/01 04:38:30;;;;;;;2.88;2.40;;;11.50;99.90;;;;;;5058717;28;20119;-77
2022/10/01 04:40:56;;;;;;;2.85;2.17;;;11.40;99.90;;;;;;5055585;28;20052;-80
2022/10/01 04:43:21;;;;;;;3.95;2.30;;;11.50;99.90;;;;;;5056771;28;20094;-76
2022/10/01 04:45:47;;;;;;;3.08;2.67;;;11.50;99.90;;;;;;5059478;28;20052;-78
2022/10/01 04:48:13;;;;;;;2.42;2.20;;;11.50;99.90;;;;;;5056169;28;20809;-78
2022/10/01 04:50:39;;;;;;;2.63;2.40;;;11.50;99.90;;;;;;5059043;28;20051;-77
2022/10/01 04:53:04;;;;;;;2.40;2.20;;;11.50;99.90;;;;;;5059115;28;20059;-77
2022/10/01 04:55:30;;;;;;;3.25;2.85;;;11.50;99.90;;;;;;5058757;28;20090;-77
2022/10/01 04:57:55;;;;;;;2.05;1.90;;;11.50;99.90;;;;;;5058083;28;20059;-77
2022/10/01 05:00:24;;;;;;;4.60;2.83;;;11.60;99.90;;;;;;5058073;28;20101;-77
2022/10/01 05:02:51;;;;;;;2.53;2.33;;;11.60;99.90;;;;;;5054753;28;20048;-78
2022/10/01 05:05:18;;;;;;;2.60;2.40;;;11.60;99.90;;;;;;5057869;28;20052;-77
2022/10/01 05:07:44;;;;;;;2.53;2.10;;;11.60;99.90;;;;;;5054898;28;20048;-77
2022/10/01 05:10:16;;;;;;;3.10;2.28;;;11.60;99.90;;;;;;5056687;28;20048;-78
2022/10/01 05:12:42;;;;;;;3.28;2.47;;;11.70;99.90;;;;;;5056007;28;20049;-77
2022/10/01 05:15:08;;;;;;;2.28;2.08;;;11.70;99.90;;;;;;5050404;28;20045;-78
2022/10/01 05:17:34;;;;;;;3.38;2.38;;;11.60;99.90;;;;;;5052035;28;20048;-78
2022/10/01 05:20:01;;;;;;;2.97;2.42;;;11.60;99.90;;;;;;5059817;28;20074;-78
2022/10/01 05:22:27;;;;;;;2.15;1.92;;;11.70;99.90;;;;;;5056479;28;20847;-78
2022/10/01 05:24:53;;;;;;;3.10;2.70;;;11.70;99.90;;;;;;5045373;28;20067;-78
2022/10/01 05:27:19;;;;;;;2.40;2.20;;;11.70;99.90;;;;;;5049141;28;20049;-77
2022/10/01 05:29:45;;;;;;;4.45;2.40;;;11.70;99.90;;;;;;5055541;28;20846;-77
2022/10/01 05:32:11;;;;;;;2.45;2.25;;;11.40;99.90;;;;;;5050777;28;20048;-78
2022/10/01 05:34:38;;;;;;;3.28;2.45;;;11.80;99.90;;;;;;5056057;28;20478;-77
2022/10/01 05:37:04;;;;;;;3.97;2.55;;;11.80;99.90;;;;;;5053222;28;20083;-78
2022/10/01 05:39:30;;;;;;;3.92;2.95;;;11.80;99.90;;;;;;5054162;28;20060;-78
2022/10/01 05:41:56;;;;;;;3.75;3.10;;;11.80;99.90;;;;;;5050697;28;20060;-78
2022/10/01 05:44:22;;;;;;;3.50;2.80;;;11.90;99.90;;;;;;5047132;28;20100;-79
2022/10/01 05:46:49;;;;;;;4.25;3.13;;;11.90;99.90;;;;;;5051642;28;20135;-79
2022/10/01 05:49:16;;;;;;;3.65;3.35;;;11.80;99.90;;;;;;5048916;28;20048;-79
2022/10/01 05:51:42;;;;;;;3.17;2.92;;;11.90;99.90;;;;;;5057582;28;20591;-81
2022/10/01 05:54:09;;;;;;;2.97;2.50;;;11.90;99.90;;;;;;5057282;28;20058;-77
2022/10/01 05:56:35;;;;;;;4.65;3.92;;;11.90;99.90;;;;;;5083970;28;20087;-80
2022/10/01 05:59:01;;;;;;;3.08;2.75;;;12.00;99.90;;;;;;5072079;28;20575;-80
2022/10/01 06:01:27;;;;;;;3.70;3.40;;;12.00;99.90;;;;;;5054818;28;20048;-79
2022/10/01 06:03:53;;;;;;;3.67;3.28;;;12.00;99.90;;;;;;5055508;28;20257;-82
2022/10/01 06:06:23;;;;;;;4.47;3.30;;;12.00;99.90;;;;;;5052714;28;20744;-78
2022/10/01 06:08:49;;;;;;;3.33;3.13;;;12.00;99.90;;;;;;5055243;28;20580;-77
2022/10/01 06:11:15;;;;;;;3.65;3.35;;;12.00;99.90;;;;;;5053120;28;20097;-82
2022/10/01 06:13:44;;;;;;;3.55;3.22;;;12.10;99.90;;;;;;5056760;28;20600;-80
2022/10/01 06:16:10;;;;;;;4.03;3.55;;;12.10;99.90;;;;;;5050520;28;20049;-79
2022/10/01 06:18:36;;;;;;;4.93;4.45;;;12.20;99.90;;;;;;5047573;28;20124;-78
2022/10/01 06:21:02;;;;;;;5.38;3.80;;;12.20;99.90;;;;;;5049061;28;20056;-77
2022/10/01 06:23:27;;;;;;;4.88;3.60;;;12.20;99.90;;;;;;5051540;28;20864;-77
2022/10/01 06:25:53;;;;;;;6.72;4.15;;;12.20;99.90;;;;;;5054525;28;20048;-78
2022/10/01 06:28:19;;;;;;;7.97;4.70;;;12.20;99.90;;;;;;5054918;28;20488;-77
2022/10/01 06:30:46;;;;;;;5.05;4.28;;;12.20;99.90;;;;;;5047877;28;20607;-77
2022/10/01 06:33:15;;;;;;;5.22;4.72;;;12.20;99.90;;;;;;5050752;28;20048;-78
2022/10/01 06:35:44;;;;;;;3.97;3.65;;;12.30;99.90;;;;;;5051500;28;20040;-77
2022/10/01 06:38:10;;;;;;;4.72;4.25;;;12.20;99.90;;;;;;5045215;28;20521;-78
2022/10/01 06:40:38;;;;;;;4.90;4.20;;;12.30;99.90;;;;;;5049680;28;20160;-77
2022/10/01 06:43:06;;;;;;;5.78;4.60;;;12.40;99.90;;;;;;5050752;28;20406;-79
2022/10/01 06:45:39;;;;;;;8.18;4.22;;;12.40;99.90;;;;;;5055109;28;20088;-79
2022/10/01 06:48:06;;;;;;;6.38;5.10;;;12.50;99.90;;;;;;5048563;28;20175;-79
2022/10/01 06:50:33;;;;;;;7.53;4.75;;;12.60;99.90;;;;;;5050826;28;20064;-78
2022/10/01 06:53:00;;;;;;;5.20;4.70;;;12.70;99.90;;;;;;5051007;28;20048;-77
2022/10/01 06:55:28;;;;;;;6.95;4.88;;;12.80;99.90;;;;;;5053291;28;20044;-79
2022/10/01 06:58:00;;;;;;;5.22;4.70;;;12.90;99.90;;;;;;5046443;28;20088;-77
2022/10/01 07:00:27;;;;;;;6.10;5.50;;;13.00;99.90;;;;;;5051101;28;20075;-78
2022/10/01 07:02:54;;;;;;;9.35;5.13;;;13.20;99.90;;;;;;5052685;28;20835;-79
2022/10/01 07:05:21;;;;;;;5.20;4.70;;;13.20;99.90;;;;;;5046070;28;20103;-78
2022/10/01 07:07:47;;;;;;;5.47;4.75;;;13.10;99.90;;;;;;5047503;28;20137;-78
2022/10/01 07:10:15;;;;;;;6.93;4.72;;;13.20;99.90;;;;;;5045023;28;20059;-79
2022/10/01 07:12:40;;;;;;;6.93;4.97;;;13.40;99.90;;;;;;5051095;28;20158;-79
2022/10/01 07:15:08;;;;;;;6.50;5.00;;;13.50;99.90;;;;;;5053985;28;20505;-80
2022/10/01 07:17:41;;;;;;;6.85;4.93;;;13.50;99.90;;;;;;5091332;28;20053;-81
2022/10/01 07:20:07;;;;;;;7.15;4.95;;;13.60;99.90;;;;;;5059581;28;20048;-78
2022/10/01 07:22:33;;;;;;;5.22;4.43;;;13.50;99.90;;;;;;5056116;28;20076;-82
2022/10/01 07:24:59;;;;;;;7.10;4.70;;;13.50;99.90;;;;;;5055377;28;20044;-78
2022/10/01 07:27:24;;;;;;;5.50;4.90;;;13.60;99.90;;;;;;5054798;28;20556;-82
2022/10/01 07:29:51;;;;;;;7.30;4.85;;;13.50;99.90;;;;;;5057674;28;20775;-83
2022/10/01 07:32:17;;;;;;;8.02;4.38;;;13.50;99.90;;;;;;5060737;28;20143;-81
2022/10/01 07:34:43;;;;;;;4.60;3.88;;;13.60;99.90;;;;;;5061544;28;20401;-80
2022/10/01 07:37:09;;;;;;;4.07;3.67;;;13.60;99.90;;;;;;5050697;28;20045;-85
2022/10/01 07:39:36;;;;;;;5.70;3.90;;;13.70;99.90;;;;;;5093203;28;20041;-80
2022/10/01 07:42:02;;;;;;;6.28;4.03;;;13.70;99.90;;;;;;5054642;28;20049;-81
2022/10/01 07:44:28;;;;;;;3.92;3.60;;;13.70;99.90;;;;;;5050101;28;20675;-81
2022/10/01 07:46:57;;;;;;;3.67;2.88;;;13.80;99.90;;;;;;5047952;28;20079;-82
2022/10/01 07:49:24;;;;;;;3.22;2.92;;;13.70;99.90;;;;;;5051030;28;20040;-81
2022/10/01 07:51:51;;;;;;;4.47;2.95;;;13.70;99.90;;;;;;5091003;28;20064;-79
2022/10/01 07:54:17;;;;;;;3.45;3.15;;;13.80;99.90;;;;;;5051293;28;20159;-82
2022/10/01 07:56:43;;;;;;;3.90;3.47;;;13.90;99.90;;;;;;5061820;28;20041;-81
2022/10/01 07:59:09;;;;;;;3.67;2.85;;;14.00;99.90;;;;;;5049985;28;20053;-80
2022/10/01 08:01:36;;;;;;;3.22;2.80;;;14.00;99.90;;;;;;5043585;28;20051;-79
2022/10/01 08:05:16;;;;;;;3.67;3.08;;;14.20;99.90;;;;;;5043430;28;20060;-81
2022/10/01 08:06:48;;;;;;;3.38;2.83;;;14.40;99.90;;;;;;5051647;28;20048;-81
2022/10/01 08:09:14;;;;;;;4.43;2.65;;;14.60;99.90;;;;;;5048404;28;20055;-80
2022/10/01 08:11:40;;;;;;;5.95;2.58;;;14.90;99.90;;;;;;5055446;28;20041;-83
2022/10/01 08:14:06;;;;;;;4.05;2.30;;;15.20;99.90;;;;;;5057852;28;20498;-81
2022/10/01 08:16:33;;;;;;;5.88;2.67;;;15.60;99.90;;;;;;5057942;28;20040;-81
2022/10/01 08:18:59;;;;;;;4.03;2.70;;;16.50;99.90;;;;;;5056733;28;20044;-80
2022/10/01 08:21:27;;;;;;;5.45;2.53;;;17.50;99.90;;;;;;5048545;28;20037;-78
2022/10/01 08:23:53;;;;;;;1.70;1.38;;;18.50;99.90;;;;;;5044551;28;20052;-82
2022/10/01 08:26:18;;;;;;;2.30;2.05;;;19.30;99.90;;;;;;5049604;28;20041;-81
2022/10/01 08:28:44;;;;;;;4.68;1.88;;;20.00;99.90;;;;;;5046587;28;21009;-80
2022/10/01 08:31:10;;;;;;;3.20;1.50;;;19.40;99.90;;;;;;5055747;28;20709;-80
2022/10/01 08:33:37;;;;;;;3.50;1.55;;;19.40;99.90;;;;;;5057626;28;20056;-82
2022/10/01 08:36:06;;;;;;;5.28;1.95;;;19.60;99.90;;;;;;5040536;28;20792;-80
2022/10/01 08:38:32;;;;;;;5.00;2.00;;;20.50;99.90;;;;;;5045028;28;20653;-79
2022/10/01 08:41:05;;;;;;;2.42;1.58;;;21.10;99.90;;;;;;5056951;28;20049;-80
2022/10/01 08:43:35;;;;;;;;;;;21.40;99.90;;;;;;5058084;28;20063;-80
2022/10/01 08:46:10;;;;;;;2.67;1.45;;;21.50;99.90;;;;;;5054014;28;20033;-78
2022/10/01 08:49:03;;;;;;;6.78;2.08;;;21.10;99.90;;;;;;5046281;28;20081;-79
2022/10/01 08:52:21;;;;;;;3.17;1.85;;;21.00;99.90;;;;;;5043604;28;20189;-81
2022/10/01 08:54:55;;;;;;;4.65;2.15;;;20.30;99.90;;;;;;4996164;28;20128;-78
2022/10/01 08:57:27;;;;;;;5.05;2.13;;;20.60;99.90;;;;;;5004898;28;20053;-81
2022/10/01 08:59:58;;;;;;;5.20;2.10;;;21.00;99.90;;;;;;5032120;28;20061;-78
2022/10/01 09:02:30;;;;;;;4.22;1.80;;;21.40;99.90;;;;;;5054931;28;20615;-79
2022/10/01 09:04:59;;;;;;;7.20;2.90;;;21.70;99.90;;;;;;5056717;28;20087;-81
2022/10/01 09:07:40;;;;;;;4.70;2.50;;;22.50;99.90;;;;;;5057428;28;20040;-81
2022/10/01 09:10:24;;;;;;;4.45;2.22;;;21.80;99.90;;;;;;5053502;28;20090;-81
2022/10/01 09:13:15;;;;;;;7.28;2.72;;;20.60;99.90;;;;;;5056477;28;20048;-81
2022/10/01 09:16:05;;;;;;;6.25;2.40;;;19.90;99.90;;;;;;5051773;28;20343;-81
2022/10/01 09:18:40;;;;;;;6.53;2.92;;;19.10;99.90;;;;;;5056825;28;20094;-80
2022/10/01 09:21:46;;;;;;;10.35;2.50;;;18.90;99.90;;;;;;5054815;28;20615;-80
2022/10/01 09:24:32;;;;;;;6.80;2.30;;;18.50;99.90;;;;;;5053760;28;20076;-81
2022/10/01 09:27:00;;;;;;;5.85;2.55;;;18.20;99.90;;;;;;5056149;28;20044;-82
2022/10/01 09:29:47;;;;;;;8.25;2.22;;;17.80;99.90;;;;;;5055723;28;20048;-81
2022/10/01 09:32:16;;;;;;;5.47;2.45;;;17.70;99.90;;;;;;5055977;28;20053;-77
2022/10/01 09:34:44;;;;;;;8.48;3.03;;;17.80;99.90;;;;;;5054813;28;20052;-80
2022/10/01 09:37:29;;;;;;;10.32;2.42;;;17.60;99.90;;;;;;5056102;28;20044;-79
2022/10/01 09:40:22;;;;;;;6.40;2.45;;;17.40;99.90;;;;;;5049817;28;20058;-81
2022/10/01 09:42:48;;;;;;;5.15;1.90;;;17.10;99.90;;;;;;5044642;28;20049;-81
2022/10/01 09:45:17;;;;;;;6.32;1.92;;;16.80;99.90;;;;;;5055967;28;20072;-80
2022/10/01 09:47:47;;;;;;;4.45;2.03;;;16.60;99.90;;;;;;5050290;28;20053;-78
2022/10/01 09:50:18;;;;;;;5.32;1.60;;;16.40;99.90;;;;;;5053844;28;20056;-79
2022/10/01 09:52:47;;;;;;;6.95;1.83;;;16.70;99.90;;;;;;5048898;28;20044;-74
2022/10/01 09:55:25;;;;;;;3.20;1.75;;;18.10;99.90;;;;;;5048848;28;20044;-80
2022/10/01 09:58:07;;;;;;;3.40;1.35;;;19.00;99.90;;;;;;5086569;28;20513;-80
2022/10/01 10:00:35;;;;;;;3.95;1.98;;;19.50;99.90;;;;;;5046043;28;20147;-79
2022/10/01 10:03:00;;;;;;;4.55;2.55;;;19.10;99.90;;;;;;5046814;28;20049;-78
2022/10/01 10:05:29;;;;;;;5.10;2.58;;;18.90;99.90;;;;;;5042333;28;20049;-80
2022/10/01 10:08:11;;;;;;;7.82;2.13;;;19.50;99.90;;;;;;5045084;28;20353;-78
2022/10/01 10:10:38;;;;;;;4.95;2.20;;;21.10;99.90;;;;;;5041941;28;20071;-78
2022/10/01 10:13:25;;;;;;;5.28;1.83;;;21.80;99.90;;;;;;5055962;28;20056;-79
2022/10/01 10:16:14;;;;;;;3.22;1.80;;;22.10;99.90;;;;;;5040493;28;20049;-79
2022/10/01 10:18:40;;;;;;;6.75;2.25;;;21.40;99.90;;;;;;5056778;28;20052;-77
2022/10/01 10:21:19;;;;;;;7.45;1.70;;;21.00;99.90;;;;;;5046172;28;20846;-81
2022/10/01 10:23:50;;;;;;;4.00;1.73;;;20.00;99.90;;;;;;5047438;28;20937;-78
2022/10/01 10:26:34;;;;;;;5.28;2.40;;;19.00;99.90;;;;;;5047635;28;20115;-78
2022/10/01 10:29:02;;;;;;;7.90;2.28;;;18.20;99.90;;;;;;5045264;28;20769;-79
2022/10/01 10:31:39;;;;;;;7.78;2.20;;;17.70;99.90;;;;;;5051708;28;20115;-75
2022/10/01 10:34:22;;;;;;;3.67;1.77;;;17.10;99.90;;;;;;5043852;28;20052;-75
2022/10/01 10:36:56;;;;;;;2.38;0.73;;;16.20;99.90;;;;;;5075239;27;20056;-73
2022/10/01 10:39:30;;;;;;;1.15;0.52;;;15.40;99.90;;;;;;5049447;28;20153;-73
2022/10/01 10:41:58;;;;;;;1.67;0.70;;;14.80;99.90;;;;;;5039902;28;20071;-74
2022/10/01 10:44:29;;;;;;;1.85;0.90;;;14.60;99.90;;;;;;5048807;28;20075;-75
2022/10/01 10:46:59;;;;;;;3.70;0.77;;;14.50;99.90;;;;;;5049033;28;20048;-76
2022/10/01 10:49:55;;;;;;;2.45;1.17;;;14.50;99.90;;;;;;5056798;28;20187;-74
2022/10/01 10:52:32;;;;;;;4.30;1.00;;;14.50;99.90;;;;;;5038468;28;20059;-75
2022/10/01 10:55:00;;;;;;;4.38;1.80;;;14.60;99.90;;;;;;5054222;28;20072;-75
2022/10/01 10:57:32;;;;;;;3.17;1.20;;;14.50;99.90;;;;;;5055095;28;20234;-75
2022/10/01 11:00:00;;;;;;;3.20;1.30;;;14.50;99.90;;;;;;5050467;28;20493;-75
2022/10/01 11:02:29;;;;;;;3.35;1.15;;;14.50;99.90;;;;;;5049856;28;20367;-78
2022/10/01 11:04:57;;;;;;;6.68;1.70;;;14.60;99.90;;;;;;5042768;28;20052;-79
2022/10/01 11:07:25;;;;;;;2.60;1.20;;;14.50;99.90;;;;;;5050161;28;20134;-78
2022/10/01 11:10:09;;;;;;;1.65;1.38;;;14.60;99.90;;;;;;5048937;28;20151;-78
2022/10/01 11:12:56;;;;;;;1.30;1.20;;;14.70;99.90;;;;;;5051667;28;20417;-77
2022/10/01 11:15:34;;;;;;;3.15;1.33;;;15.00;99.90;;;;;;5056128;28;20049;-76
2022/10/01 11:17:59;;;;;;;3.67;1.70;;;15.10;99.90;;;;;;5054419;28;20099;-76
2022/10/01 11:20:49;;;;;;;3.83;1.75;;;15.20;99.90;;;;;;5087804;28;20036;-75
2022/10/01 11:23:35;;;;;;;3.65;1.58;;;15.20;99.90;;;;;;5045436;28;20126;-75
2022/10/01 11:26:32;;;;;;;2.15;1.35;;;15.30;99.90;;;;;;5052672;28;20857;-76
2022/10/01 11:29:28;;;;;;;5.07;1.60;;;15.40;99.90;;;;;;5054317;28;20808;-77
2022/10/01 11:32:23;;;;;;;4.22;1.42;;;15.60;99.90;;;;;;5053375;28;20048;-78
2022/10/01 11:35:12;;;;;;;1.95;1.05;;;15.70;99.90;;;;;;5038126;28;20049;-78
2022/10/01 11:38:04;;;;;;;3.30;1.55;;;15.80;99.90;;;;;;5042791;28;20056;-78
2022/10/01 11:40:36;;;;;;;4.45;1.52;;;15.90;99.90;;;;;;5041185;28;20044;-78
2022/10/01 11:43:09;;;;;;;9.02;2.08;;;16.00;99.90;;;;;;5056271;28;20063;-76
2022/10/01 11:45:42;;;;;;;3.60;2.13;;;16.00;99.90;;;;;;5053173;28;20498;-77
2022/10/01 11:48:46;;;;;;;3.13;1.70;;;16.10;99.90;;;;;;5044341;28;20065;-76
2022/10/01 11:51:16;;;;;;;3.15;1.75;;;15.90;99.90;;;;;;5045015;28;20060;-79
2022/10/01 11:53:50;;;;;;;3.50;1.83;;;15.90;99.90;;;;;;5053574;28;20044;-78
2022/10/01 11:59:35;;;;;;;5.70;1.77;;;15.90;99.90;;;;;;5046573;28;20978;-79
2022/10/01 12:02:14;;;;;;;7.97;2.28;;;15.90;99.90;;;;;;5052712;28;20123;-80
2022/10/01 12:04:48;;;;;;;4.72;1.98;;;16.00;99.90;;;;;;5055059;28;20071;-78
2022/10/01 12:07:37;;;;;;;4.45;2.13;;;16.20;99.90;;;;;;5045067;28;20045;-79
2022/10/01 12:10:21;;;;;;;4.97;2.17;;;16.20;99.90;;;;;;5057924;28;20051;-79
2022/10/01 12:13:24;;;;;;;7.13;2.17;;;16.40;99.90;;;;;;5053262;28;20044;-77
2022/10/01 12:16:10;;;;;;;5.22;2.03;;;16.40;99.90;;;;;;5054611;28;20048;-77
2022/10/01 12:18:50;;;;;;;5.57;2.08;;;16.60;99.90;;;;;;5055429;28;20049;-79
2022/10/01 12:21:31;;;;;;;4.90;1.88;;;16.60;99.90;;;;;;5053427;28;20115;-79
2022/10/01 12:24:02;;;;;;;5.75;2.35;;;16.70;99.90;;;;;;5056442;28;20947;-80
2022/10/01 12:26:59;;;;;;;9.07;2.30;;;16.80;99.90;;;;;;5056321;28;20040;-79
2022/10/01 12:29:39;;;;;;;6.10;2.38;;;16.80;99.90;;;;;;5056763;28;20055;-78
2022/10/01 12:32:31;;;;;;;4.97;2.05;;;16.60;99.90;;;;;;5055569;28;20105;-77
2022/10/01 12:35:26;;;;;;;6.50;2.22;;;16.60;99.90;;;;;;5088664;28;20041;-81
2022/10/01 12:37:59;;;;;;;8.55;2.40;;;16.50;99.90;;;;;;5053256;28;20055;-79
2022/10/01 12:40:46;;;;;;;;;;;16.50;99.90;;;;;;5057725;28;20500;-77
2022/10/01 12:43:43;;;;;;;4.72;1.75;;;16.50;99.90;;;;;;5056877;28;19924;-79
2022/10/01 12:46:30;;;;;;;7.13;2.20;;;16.60;99.90;;;;;;5053857;28;20050;-80
2022/10/01 12:49:06;;;;;;;5.10;1.77;;;16.80;99.90;;;;;;5058505;28;20064;-80
2022/10/01 12:51:47;;;;;;;4.18;1.60;;;16.80;99.90;;;;;;5040937;28;20056;-80
2022/10/01 12:55:07;;;;;;;4.15;2.00;;;16.80;99.90;;;;;;5049782;28;20567;-80
2022/10/01 12:57:59;;;;;;;4.18;1.55;;;16.90;99.90;;;;;;5050163;28;20402;-83
2022/10/01 13:00:30;;;;;;;3.42;1.83;;;16.90;99.90;;;;;;5050154;28;20040;-79
2022/10/01 13:02:56;;;;;;;6.53;2.30;;;17.00;99.90;;;;;;5054948;28;20056;-79
2022/10/01 13:05:24;;;;;;;8.82;2.15;;;16.90;99.90;;;;;;5055261;28;20137;-78
2022/10/01 13:08:05;;;;;;;9.20;2.55;;;16.90;99.90;;;;;;5053374;28;20131;-78
2022/10/01 13:10:49;;;;;;;5.40;2.05;;;16.80;99.90;;;;;;5055594;28;20387;-79
2022/10/01 13:13:20;;;;;;;6.70;2.63;;;16.90;99.90;;;;;;5054010;28;20048;-77